sensor_id;sensor_type;location;lat;lon;timestamp;temperature;humidity
26336;DHT22;14047;50.936;4.654;2023-02-20T00:01:30;6.70;99.90
26336;DHT22;14047;50.936;4.654;2023-02-20T00:03:56;6.80;99.90
26336;DHT22;14047;50.936;4.654;2023-02-20T00:06:22;6.80;99.90
26336;DHT22;14047;50.936;4.654;2023-02-20T00:08:48;6.80;99.90
26336;DHT22;14047;50.936;4.654;2023-02-20T00:11:15;6.80;99.90
26336;DHT22;14047;50.936;4.654;2023-02-20T00:13:45;6.80;99.90
26336;DHT22;14047;50.936;4.654;2023-02-20T00:16:11;6.70;99.90
26336;DHT22;14047;50.936;4.654;2023-02-20T00:18:37;6.80;99.90
26336;DHT22;14047;50.936;4.654;2023-02-20T00:21:05;6.80;99.90
26336;DHT22;14047;50.936;4.654;2023-02-20T00:23:34;6.70;99.90
26336;DHT22;14047;50.936;4.654;2023-02-20T00:26:00;6.60;99.90
26336;DHT22;14047;50.936;4.654;2023-02-20T00:28:26;6.50;99.90
26336;DHT22;14047;50.936;4.654;2023-02-20T00:30:54;6.40;99.90
26336;DHT22;14047;50.936;4.654;2023-02-20T00:33:20;6.30;99.90
26336;DHT22;14047;50.936;4.654;2023-02-20T00:35:48;6.30;99.90
26336;DHT22;14047;50.936;4.654;2023-02-20T00:38:14;6.10;99.90
26336;DHT22;14047;50.936;4.654;2023-02-20T00:40:41;6.00;99.90
26336;DHT22;14047;50.936;4.654;2023-02-20T00:43:07;6.10;99.90
26336;DHT22;14047;50.936;4.654;2023-02-20T00:45:34;6.00;99.90
26336;DHT22;14047;50.936;4.654;2023-02-20T00:48:00;6.00;99.90
26336;DHT22;14047;50.936;4.654;2023-02-20T00:50:25;6.00;99.90
26336;DHT22;14047;50.936;4.654;2023-02-20T00:52:51;5.90;99.90
26336;DHT22;14047;50.936;4.654;2023-02-20T00:55:17;6.00;99.90
26336;DHT22;14047;50.936;4.654;2023-02-20T00:57:44;5.90;99.90
26336;DHT22;14047;50.936;4.654;2023-02-20T01:00:26;5.90;99.90
26336;DHT22;14047;50.936;4.654;2023-02-20T01:02:52;5.90;99.90
26336;DHT22;14047;50.936;4.654;2023-02-20T01:05:19;5.90;99.90
26336;DHT22;14047;50.936;4.654;2023-02-20T01:07:45;5.90;99.90
26336;DHT22;14047;50.936;4.654;2023-02-20T01:10:11;5.90;99.90
26336;DHT22;14047;50.936;4.654;2023-02-20T01:12:38;6.00;99.90
26336;DHT22;14047;50.936;4.654;2023-02-20T01:15:06;6.00;99.90
26336;DHT22;14047;50.936;4.654;2023-02-20T01:17:33;6.10;99.90
26336;DHT22;14047;50.936;4.654;2023-02-20T01:19:59;6.00;99.90
26336;DHT22;14047;50.936;4.654;2023-02-20T01:22:25;6.00;99.90
26336;DHT22;14047;50.936;4.654;2023-02-20T01:24:51;6.10;99.90
26336;DHT22;14047;50.936;4.654;2023-02-20T01:27:17;6.10;99.90
26336;DHT22;14047;50.936;4.654;2023-02-20T01:29:43;6.00;99.90
26336;DHT22;14047;50.936;4.654;2023-02-20T01:32:10;6.20;99.90
26336;DHT22;14047;50.936;4.654;2023-02-20T01:34:37;6.30;99.90
26336;DHT22;14047;50.936;4.654;2023-02-20T01:37:04;6.20;99.90
26336;DHT22;14047;50.936;4.654;2023-02-20T01:39:30;6.20;99.90
26336;DHT22;14047;50.936;4.654;2023-02-20T01:42:07;6.20;99.90
26336;DHT22;14047;50.936;4.654;2023-02-20T01:44:37;6.10;99.90
26336;DHT22;14047;50.936;4.654;2023-02-20T01:47:08;6.10;99.90
26336;DHT22;14047;50.936;4.654;2023-02-20T01:49:44;6.10;99.90
26336;DHT22;14047;50.936;4.654;2023-02-20T01:52:26;6.10;99.90
26336;DHT22;14047;50.936;4.654;2023-02-20T01:55:05;6.10;99.90
26336;DHT22;14047;50.936;4.654;2023-02-20T01:57:37;6.00;99.90
26336;DHT22;14047;50.936;4.654;2023-02-20T02:00:16;6.00;99.90
26336;DHT22;14047;50.936;4.654;2023-02-20T02:03:11;6.10;99.90
26336;DHT22;14047;50.936;4.654;2023-02-20T02:05:45;6.20;99.90
26336;DHT22;14047;50.936;4.654;2023-02-20T02:08:13;6.20;99.90
26336;DHT22;14047;50.936;4.654;2023-02-20T02:13:20;6.20;99.90
26336;DHT22;14047;50.936;4.654;2023-02-20T02:15:50;6.20;99.90
26336;DHT22;14047;50.936;4.654;2023-02-20T02:24:39;6.20;99.90
26336;DHT22;14047;50.936;4.654;2023-02-20T02:33:06;6.30;99.90
26336;DHT22;14047;50.936;4.654;2023-02-20T02:45:01;6.30;99.90
26336;DHT22;14047;50.936;4.654;2023-02-20T02:47:36;6.30;99.90
26336;DHT22;14047;50.936;4.654;2023-02-20T02:50:09;6.30;99.90
26336;DHT22;14047;50.936;4.654;2023-02-20T02:52:39;6.20;99.90
26336;DHT22;14047;50.936;4.654;2023-02-20T02:55:26;6.20;99.90
26336;DHT22;14047;50.936;4.654;2023-02-20T02:57:53;6.30;99.90
26336;DHT22;14047;50.936;4.654;2023-02-20T03:00:28;6.30;99.90
26336;DHT22;14047;50.936;4.654;2023-02-20T03:03:21;6.40;99.90
26336;DHT22;14047;50.936;4.654;2023-02-20T03:05:50;6.40;99.90
26336;DHT22;14047;50.936;4.654;2023-02-20T03:08:35;6.50;99.90
26336;DHT22;14047;50.936;4.654;2023-02-20T03:11:10;6.50;99.90
26336;DHT22;14047;50.936;4.654;2023-02-20T03:13:43;6.50;99.90
26336;DHT22;14047;50.936;4.654;2023-02-20T03:19:08;6.50;99.90
26336;DHT22;14047;50.936;4.654;2023-02-20T03:21:43;6.30;99.90
26336;DHT22;14047;50.936;4.654;2023-02-20T03:24:12;6.20;99.90
26336;DHT22;14047;50.936;4.654;2023-02-20T03:26:41;6.20;99.90
26336;DHT22;14047;50.936;4.654;2023-02-20T03:29:10;6.20;99.90
26336;DHT22;14047;50.936;4.654;2023-02-20T03:31:52;6.20;99.90
26336;DHT22;14047;50.936;4.654;2023-02-20T03:34:42;6.10;99.90
26336;DHT22;14047;50.936;4.654;2023-02-20T03:37:30;6.10;99.90
26336;DHT22;14047;50.936;4.654;2023-02-20T03:40:17;6.10;99.90
26336;DHT22;14047;50.936;4.654;2023-02-20T03:43:08;6.00;99.90
26336;DHT22;14047;50.936;4.654;2023-02-20T03:46:10;6.10;99.90
26336;DHT22;14047;50.936;4.654;2023-02-20T03:48:45;6.00;99.90
26336;DHT22;14047;50.936;4.654;2023-02-20T03:51:13;6.00;99.90
26336;DHT22;14047;50.936;4.654;2023-02-20T03:53:52;6.10;99.90
26336;DHT22;14047;50.936;4.654;2023-02-20T03:56:25;6.20;99.90
26336;DHT22;14047;50.936;4.654;2023-02-20T03:58:57;6.30;99.90
26336;DHT22;14047;50.936;4.654;2023-02-20T04:01:26;6.30;99.90
26336;DHT22;14047;50.936;4.654;2023-02-20T04:03:55;6.40;99.90
26336;DHT22;14047;50.936;4.654;2023-02-20T04:06:26;6.40;99.90
26336;DHT22;14047;50.936;4.654;2023-02-20T04:09:06;6.40;99.90
26336;DHT22;14047;50.936;4.654;2023-02-20T04:11:47;6.50;99.90
26336;DHT22;14047;50.936;4.654;2023-02-20T04:14:17;6.60;99.90
26336;DHT22;14047;50.936;4.654;2023-02-20T04:16:55;6.60;99.90
26336;DHT22;14047;50.936;4.654;2023-02-20T04:19:22;6.70;99.90
26336;DHT22;14047;50.936;4.654;2023-02-20T04:21:57;6.80;99.90
26336;DHT22;14047;50.936;4.654;2023-02-20T04:24:37;6.80;99.90
26336;DHT22;14047;50.936;4.654;2023-02-20T04:27:05;6.90;99.90
26336;DHT22;14047;50.936;4.654;2023-02-20T04:29:34;6.90;99.90
26336;DHT22;14047;50.936;4.654;2023-02-20T04:32:00;6.90;99.90
26336;DHT22;14047;50.936;4.654;2023-02-20T04:34:31;6.90;99.90
26336;DHT22;14047;50.936;4.654;2023-02-20T04:37:11;6.90;99.90
26336;DHT22;14047;50.936;4.654;2023-02-20T04:39:38;7.00;99.90
26336;DHT22;14047;50.936;4.654;2023-02-20T04:42:05;7.00;99.90
26336;DHT22;14047;50.936;4.654;2023-02-20T04:44:31;7.00;99.90
26336;DHT22;14047;50.936;4.654;2023-02-20T04:47:04;7.00;99.90
26336;DHT22;14047;50.936;4.654;2023-02-20T04:49:31;7.10;99.90
26336;DHT22;14047;50.936;4.654;2023-02-20T04:51:59;7.10;99.90
26336;DHT22;14047;50.936;4.654;2023-02-20T04:54:25;7.10;99.90
26336;DHT22;14047;50.936;4.654;2023-02-20T04:56:52;7.00;99.90
26336;DHT22;14047;50.936;4.654;2023-02-20T04:59:19;7.00;99.90
26336;DHT22;14047;50.936;4.654;2023-02-20T05:01:45;7.10;99.90
26336;DHT22;14047;50.936;4.654;2023-02-20T05:04:14;7.10;99.90
26336;DHT22;14047;50.936;4.654;2023-02-20T05:06:42;7.10;99.90
26336;DHT22;14047;50.936;4.654;2023-02-20T05:09:08;7.10;99.90
26336;DHT22;14047;50.936;4.654;2023-02-20T05:11:36;7.20;99.90
26336;DHT22;14047;50.936;4.654;2023-02-20T05:14:03;7.20;99.90
26336;DHT22;14047;50.936;4.654;2023-02-20T05:16:30;7.20;99.90
26336;DHT22;14047;50.936;4.654;2023-02-20T05:18:55;7.20;99.90
26336;DHT22;14047;50.936;4.654;2023-02-20T05:21:21;7.20;99.90
26336;DHT22;14047;50.936;4.654;2023-02-20T05:24:06;7.30;99.90
26336;DHT22;14047;50.936;4.654;2023-02-20T05:26:32;7.30;99.90
26336;DHT22;14047;50.936;4.654;2023-02-20T05:28:58;7.40;99.90
26336;DHT22;14047;50.936;4.654;2023-02-20T05:31:24;7.30;99.90
26336;DHT22;14047;50.936;4.654;2023-02-20T05:33:50;7.30;99.90
26336;DHT22;14047;50.936;4.654;2023-02-20T05:36:16;7.40;99.90
26336;DHT22;14047;50.936;4.654;2023-02-20T05:38:42;7.30;99.90
26336;DHT22;14047;50.936;4.654;2023-02-20T05:41:14;7.40;99.90
26336;DHT22;14047;50.936;4.654;2023-02-20T05:43:40;7.30;99.90
26336;DHT22;14047;50.936;4.654;2023-02-20T05:46:06;7.40;99.90
26336;DHT22;14047;50.936;4.654;2023-02-20T05:48:32;7.40;99.90
26336;DHT22;14047;50.936;4.654;2023-02-20T05:50:58;7.40;99.90
26336;DHT22;14047;50.936;4.654;2023-02-20T05:53:27;7.40;99.90
26336;DHT22;14047;50.936;4.654;2023-02-20T05:55:53;7.40;99.90
26336;DHT22;14047;50.936;4.654;2023-02-20T05:58:19;7.40;99.90
26336;DHT22;14047;50.936;4.654;2023-02-20T06:00:45;7.40;99.90
26336;DHT22;14047;50.936;4.654;2023-02-20T06:03:13;7.40;99.90
26336;DHT22;14047;50.936;4.654;2023-02-20T06:05:39;7.40;99.90
26336;DHT22;14047;50.936;4.654;2023-02-20T06:08:06;7.30;99.90
26336;DHT22;14047;50.936;4.654;2023-02-20T06:10:32;7.30;99.90
26336;DHT22;14047;50.936;4.654;2023-02-20T06:12:58;7.40;99.90
26336;DHT22;14047;50.936;4.654;2023-02-20T06:15:24;7.40;99.90
26336;DHT22;14047;50.936;4.654;2023-02-20T06:17:51;7.40;99.90
26336;DHT22;14047;50.936;4.654;2023-02-20T06:20:17;7.40;99.90
26336;DHT22;14047;50.936;4.654;2023-02-20T06:22:43;7.40;99.90
26336;DHT22;14047;50.936;4.654;2023-02-20T06:25:09;7.40;99.90
26336;DHT22;14047;50.936;4.654;2023-02-20T06:27:38;7.40;99.90
26336;DHT22;14047;50.936;4.654;2023-02-20T06:30:04;7.40;99.90
26336;DHT22;14047;50.936;4.654;2023-02-20T06:32:30;7.50;99.90
26336;DHT22;14047;50.936;4.654;2023-02-20T06:34:56;7.40;99.90
26336;DHT22;14047;50.936;4.654;2023-02-20T06:37:22;7.40;99.90
26336;DHT22;14047;50.936;4.654;2023-02-20T06:39:48;7.50;99.90
26336;DHT22;14047;50.936;4.654;2023-02-20T06:42:14;7.30;99.90
26336;DHT22;14047;50.936;4.654;2023-02-20T06:44:41;7.30;99.90
26336;DHT22;14047;50.936;4.654;2023-02-20T06:47:06;7.30;99.90
26336;DHT22;14047;50.936;4.654;2023-02-20T06:49:37;7.40;99.90
26336;DHT22;14047;50.936;4.654;2023-02-20T06:52:07;7.40;99.90
26336;DHT22;14047;50.936;4.654;2023-02-20T06:54:33;7.40;99.90
26336;DHT22;14047;50.936;4.654;2023-02-20T06:57:00;7.40;99.90
26336;DHT22;14047;50.936;4.654;2023-02-20T06:59:26;7.40;99.90
26336;DHT22;14047;50.936;4.654;2023-02-20T07:01:53;7.40;99.90
26336;DHT22;14047;50.936;4.654;2023-02-20T07:04:24;7.40;99.90
26336;DHT22;14047;50.936;4.654;2023-02-20T07:06:51;7.40;99.90
26336;DHT22;14047;50.936;4.654;2023-02-20T07:09:17;7.40;99.90
26336;DHT22;14047;50.936;4.654;2023-02-20T07:11:45;7.40;99.90
26336;DHT22;14047;50.936;4.654;2023-02-20T07:14:12;7.40;99.90
26336;DHT22;14047;50.936;4.654;2023-02-20T07:16:38;7.40;99.90
26336;DHT22;14047;50.936;4.654;2023-02-20T07:19:04;7.40;99.90
26336;DHT22;14047;50.936;4.654;2023-02-20T07:21:29;7.40;99.90
26336;DHT22;14047;50.936;4.654;2023-02-20T07:23:55;7.40;99.90
26336;DHT22;14047;50.936;4.654;2023-02-20T07:26:23;7.50;99.90
26336;DHT22;14047;50.936;4.654;2023-02-20T07:28:50;7.50;99.90
26336;DHT22;14047;50.936;4.654;2023-02-20T07:31:16;7.50;99.90
26336;DHT22;14047;50.936;4.654;2023-02-20T07:33:42;7.50;99.90
26336;DHT22;14047;50.936;4.654;2023-02-20T07:36:13;7.50;99.90
26336;DHT22;14047;50.936;4.654;2023-02-20T07:38:40;7.50;99.90
26336;DHT22;14047;50.936;4.654;2023-02-20T07:41:06;7.50;99.90
26336;DHT22;14047;50.936;4.654;2023-02-20T07:43:32;7.50;99.90
26336;DHT22;14047;50.936;4.654;2023-02-20T07:45:58;7.60;99.90
26336;DHT22;14047;50.936;4.654;2023-02-20T07:48:24;7.60;99.90
26336;DHT22;14047;50.936;4.654;2023-02-20T07:50:50;7.60;99.90
26336;DHT22;14047;50.936;4.654;2023-02-20T07:53:19;7.60;99.90
26336;DHT22;14047;50.936;4.654;2023-02-20T07:55:46;7.70;99.90
26336;DHT22;14047;50.936;4.654;2023-02-20T07:58:12;7.70;99.90
26336;DHT22;14047;50.936;4.654;2023-02-20T08:00:38;7.80;99.90
26336;DHT22;14047;50.936;4.654;2023-02-20T08:03:03;7.80;99.90
26336;DHT22;14047;50.936;4.654;2023-02-20T08:05:29;7.70;99.90
26336;DHT22;14047;50.936;4.654;2023-02-20T08:07:55;7.70;99.90
26336;DHT22;14047;50.936;4.654;2023-02-20T08:10:26;7.70;99.90
26336;DHT22;14047;50.936;4.654;2023-02-20T08:12:53;7.70;99.90
26336;DHT22;14047;50.936;4.654;2023-02-20T08:15:21;7.70;99.90
26336;DHT22;14047;50.936;4.654;2023-02-20T08:17:47;7.80;99.90
26336;DHT22;14047;50.936;4.654;2023-02-20T08:20:19;7.80;99.90
26336;DHT22;14047;50.936;4.654;2023-02-20T08:22:46;7.80;99.90
26336;DHT22;14047;50.936;4.654;2023-02-20T08:25:12;7.80;99.90
26336;DHT22;14047;50.936;4.654;2023-02-20T08:27:43;7.80;99.90
26336;DHT22;14047;50.936;4.654;2023-02-20T08:30:20;7.70;99.90
26336;DHT22;14047;50.936;4.654;2023-02-20T08:32:49;7.80;99.90
26336;DHT22;14047;50.936;4.654;2023-02-20T08:35:15;7.80;99.90
26336;DHT22;14047;50.936;4.654;2023-02-20T08:37:41;7.80;99.90
26336;DHT22;14047;50.936;4.654;2023-02-20T08:40:08;7.90;99.90
26336;DHT22;14047;50.936;4.654;2023-02-20T08:42:37;7.90;99.90
26336;DHT22;14047;50.936;4.654;2023-02-20T08:45:05;8.00;99.90
26336;DHT22;14047;50.936;4.654;2023-02-20T08:47:31;7.90;99.90
26336;DHT22;14047;50.936;4.654;2023-02-20T08:49:57;7.90;99.90
26336;DHT22;14047;50.936;4.654;2023-02-20T08:52:23;7.90;99.90
26336;DHT22;14047;50.936;4.654;2023-02-20T08:54:49;7.90;99.90
26336;DHT22;14047;50.936;4.654;2023-02-20T08:57:16;8.00;99.90
26336;DHT22;14047;50.936;4.654;2023-02-20T08:59:42;8.00;99.90
26336;DHT22;14047;50.936;4.654;2023-02-20T09:02:19;8.00;99.90
26336;DHT22;14047;50.936;4.654;2023-02-20T09:04:46;8.10;99.90
26336;DHT22;14047;50.936;4.654;2023-02-20T09:07:13;8.10;99.90
26336;DHT22;14047;50.936;4.654;2023-02-20T09:09:39;8.20;99.90
26336;DHT22;14047;50.936;4.654;2023-02-20T09:12:06;8.20;99.90
26336;DHT22;14047;50.936;4.654;2023-02-20T09:14:32;8.20;99.90
26336;DHT22;14047;50.936;4.654;2023-02-20T09:16:58;8.20;99.90
26336;DHT22;14047;50.936;4.654;2023-02-20T09:19:24;8.20;99.90
26336;DHT22;14047;50.936;4.654;2023-02-20T09:21:50;8.20;99.90
26336;DHT22;14047;50.936;4.654;2023-02-20T09:24:16;8.20;99.90
26336;DHT22;14047;50.936;4.654;2023-02-20T09:26:42;8.20;99.90
26336;DHT22;14047;50.936;4.654;2023-02-20T09:29:08;8.30;99.90
26336;DHT22;14047;50.936;4.654;2023-02-20T09:31:34;8.40;99.90
26336;DHT22;14047;50.936;4.654;2023-02-20T09:34:00;8.40;99.90
26336;DHT22;14047;50.936;4.654;2023-02-20T09:36:27;8.40;99.90
26336;DHT22;14047;50.936;4.654;2023-02-20T09:38:53;8.30;99.90
26336;DHT22;14047;50.936;4.654;2023-02-20T09:44:14;8.30;99.90
26336;DHT22;14047;50.936;4.654;2023-02-20T09:46:46;8.20;99.90
26336;DHT22;14047;50.936;4.654;2023-02-20T09:49:22;8.30;99.90
26336;DHT22;14047;50.936;4.654;2023-02-20T09:51:58;8.30;99.90
26336;DHT22;14047;50.936;4.654;2023-02-20T09:54:45;8.30;99.90
26336;DHT22;14047;50.936;4.654;2023-02-20T09:57:15;8.30;99.90
26336;DHT22;14047;50.936;4.654;2023-02-20T09:59:52;8.40;99.90
26336;DHT22;14047;50.936;4.654;2023-02-20T10:04:52;8.30;99.90
26336;DHT22;14047;50.936;4.654;2023-02-20T10:09:56;8.50;99.90
26336;DHT22;14047;50.936;4.654;2023-02-20T10:12:56;8.50;99.90
26336;DHT22;14047;50.936;4.654;2023-02-20T10:15:29;8.40;99.90
26336;DHT22;14047;50.936;4.654;2023-02-20T10:26:13;8.50;99.90
26336;DHT22;14047;50.936;4.654;2023-02-20T10:28:47;8.60;99.90
26336;DHT22;14047;50.936;4.654;2023-02-20T10:31:38;8.60;99.90
26336;DHT22;14047;50.936;4.654;2023-02-20T10:34:13;8.50;99.90
26336;DHT22;14047;50.936;4.654;2023-02-20T10:37:14;8.60;99.90
26336;DHT22;14047;50.936;4.654;2023-02-20T10:39:48;8.60;99.90
26336;DHT22;14047;50.936;4.654;2023-02-20T10:42:19;8.50;99.90
26336;DHT22;14047;50.936;4.654;2023-02-20T10:47:44;8.70;99.90
26336;DHT22;14047;50.936;4.654;2023-02-20T10:50:21;8.80;99.90
26336;DHT22;14047;50.936;4.654;2023-02-20T10:52:56;8.80;99.90
26336;DHT22;14047;50.936;4.654;2023-02-20T10:58:07;8.90;99.90
26336;DHT22;14047;50.936;4.654;2023-02-20T11:00:41;8.80;99.90
26336;DHT22;14047;50.936;4.654;2023-02-20T11:03:22;9.00;99.90
26336;DHT22;14047;50.936;4.654;2023-02-20T11:05:53;8.90;99.90
26336;DHT22;14047;50.936;4.654;2023-02-20T11:08:20;8.80;99.90
26336;DHT22;14047;50.936;4.654;2023-02-20T11:10:48;8.80;99.90
26336;DHT22;14047;50.936;4.654;2023-02-20T11:13:17;8.90;99.90
26336;DHT22;14047;50.936;4.654;2023-02-20T11:15:45;9.00;99.90
26336;DHT22;14047;50.936;4.654;2023-02-20T11:18:41;9.00;99.90
26336;DHT22;14047;50.936;4.654;2023-02-20T11:21:06;9.00;99.90
26336;DHT22;14047;50.936;4.654;2023-02-20T11:23:33;9.00;99.90
26336;DHT22;14047;50.936;4.654;2023-02-20T11:26:26;8.80;99.90
26336;DHT22;14047;50.936;4.654;2023-02-20T11:29:10;8.90;99.90
26336;DHT22;14047;50.936;4.654;2023-02-20T11:31:38;9.00;99.90
26336;DHT22;14047;50.936;4.654;2023-02-20T11:34:04;9.00;99.90
26336;DHT22;14047;50.936;4.654;2023-02-20T11:36:36;8.90;99.90
26336;DHT22;14047;50.936;4.654;2023-02-20T11:39:16;8.90;99.90
26336;DHT22;14047;50.936;4.654;2023-02-20T11:41:43;8.90;99.90
26336;DHT22;14047;50.936;4.654;2023-02-20T11:46:37;8.90;99.90
26336;DHT22;14047;50.936;4.654;2023-02-20T11:49:08;8.90;99.90
26336;DHT22;14047;50.936;4.654;2023-02-20T11:51:40;8.90;99.90
26336;DHT22;14047;50.936;4.654;2023-02-20T11:54:21;8.90;99.90
26336;DHT22;14047;50.936;4.654;2023-02-20T11:57:20;8.90;99.90
26336;DHT22;14047;50.936;4.654;2023-02-20T12:00:14;8.90;99.90
26336;DHT22;14047;50.936;4.654;2023-02-20T12:08:31;9.00;99.90
26336;DHT22;14047;50.936;4.654;2023-02-20T12:11:20;9.10;99.90
26336;DHT22;14047;50.936;4.654;2023-02-20T12:13:48;9.20;99.90
26336;DHT22;14047;50.936;4.654;2023-02-20T12:22:27;9.20;99.90
26336;DHT22;14047;50.936;4.654;2023-02-20T12:27:45;9.20;99.90
26336;DHT22;14047;50.936;4.654;2023-02-20T12:36:07;9.20;99.90
26336;DHT22;14047;50.936;4.654;2023-02-20T12:44:11;9.40;99.90
26336;DHT22;14047;50.936;4.654;2023-02-20T12:55:23;9.30;99.90
26336;DHT22;14047;50.936;4.654;2023-02-20T12:58:20;9.40;99.90
26336;DHT22;14047;50.936;4.654;2023-02-20T13:00:59;9.40;99.90
26336;DHT22;14047;50.936;4.654;2023-02-20T13:06:09;9.50;99.90
26336;DHT22;14047;50.936;4.654;2023-02-20T13:08:58;9.40;99.90
26336;DHT22;14047;50.936;4.654;2023-02-20T13:11:33;9.40;99.90
26336;DHT22;14047;50.936;4.654;2023-02-20T13:19:39;9.60;99.90
26336;DHT22;14047;50.936;4.654;2023-02-20T13:22:05;9.60;99.90
26336;DHT22;14047;50.936;4.654;2023-02-20T13:24:37;9.60;99.90
26336;DHT22;14047;50.936;4.654;2023-02-20T13:27:27;9.60;99.90
26336;DHT22;14047;50.936;4.654;2023-02-20T13:29:59;9.50;99.90
26336;DHT22;14047;50.936;4.654;2023-02-20T13:32:30;9.50;99.90
26336;DHT22;14047;50.936;4.654;2023-02-20T13:35:33;9.60;99.90
26336;DHT22;14047;50.936;4.654;2023-02-20T13:38:26;9.60;99.90
26336;DHT22;14047;50.936;4.654;2023-02-20T13:43:24;9.50;99.90
26336;DHT22;14047;50.936;4.654;2023-02-20T13:54:13;9.60;99.90
26336;DHT22;14047;50.936;4.654;2023-02-20T13:56:55;9.60;99.90
26336;DHT22;14047;50.936;4.654;2023-02-20T13:59:24;9.60;99.90
26336;DHT22;14047;50.936;4.654;2023-02-20T14:04:26;9.40;99.90
26336;DHT22;14047;50.936;4.654;2023-02-20T14:06:53;9.40;99.90
26336;DHT22;14047;50.936;4.654;2023-02-20T14:09:22;9.50;99.90
26336;DHT22;14047;50.936;4.654;2023-02-20T14:11:50;9.50;99.90
26336;DHT22;14047;50.936;4.654;2023-02-20T14:14:29;9.50;99.90
26336;DHT22;14047;50.936;4.654;2023-02-20T14:17:05;9.40;99.90
26336;DHT22;14047;50.936;4.654;2023-02-20T14:19:32;9.50;99.90
26336;DHT22;14047;50.936;4.654;2023-02-20T14:22:21;9.50;99.90
26336;DHT22;14047;50.936;4.654;2023-02-20T14:25:28;9.60;99.90
26336;DHT22;14047;50.936;4.654;2023-02-20T14:28:09;9.60;99.90
26336;DHT22;14047;50.936;4.654;2023-02-20T14:30:36;9.60;99.90
26336;DHT22;14047;50.936;4.654;2023-02-20T14:33:20;9.60;99.90
26336;DHT22;14047;50.936;4.654;2023-02-20T14:39:25;9.50;99.90
26336;DHT22;14047;50.936;4.654;2023-02-20T14:41:56;9.50;99.90
26336;DHT22;14047;50.936;4.654;2023-02-20T14:44:24;9.60;99.90
26336;DHT22;14047;50.936;4.654;2023-02-20T14:46:54;9.70;99.90
26336;DHT22;14047;50.936;4.654;2023-02-20T14:49:26;9.60;99.90
26336;DHT22;14047;50.936;4.654;2023-02-20T14:54:35;9.60;99.90
26336;DHT22;14047;50.936;4.654;2023-02-20T14:57:02;9.60;99.90
26336;DHT22;14047;50.936;4.654;2023-02-20T14:59:39;9.70;99.90
26336;DHT22;14047;50.936;4.654;2023-02-20T15:04:32;9.60;99.90
26336;DHT22;14047;50.936;4.654;2023-02-20T15:11:16;9.60;99.90
26336;DHT22;14047;50.936;4.654;2023-02-20T15:13:44;9.70;99.90
26336;DHT22;14047;50.936;4.654;2023-02-20T15:16:29;9.70;99.90
26336;DHT22;14047;50.936;4.654;2023-02-20T15:18:56;9.60;99.90
26336;DHT22;14047;50.936;4.654;2023-02-20T15:21:39;9.70;99.90
26336;DHT22;14047;50.936;4.654;2023-02-20T15:26:50;9.60;99.90
26336;DHT22;14047;50.936;4.654;2023-02-20T15:29:23;9.60;99.90
26336;DHT22;14047;50.936;4.654;2023-02-20T15:34:24;9.60;99.90
26336;DHT22;14047;50.936;4.654;2023-02-20T15:36:51;9.50;99.90
26336;DHT22;14047;50.936;4.654;2023-02-20T15:39:18;9.50;99.90
26336;DHT22;14047;50.936;4.654;2023-02-20T15:41:45;9.60;99.90
26336;DHT22;14047;50.936;4.654;2023-02-20T15:44:12;9.60;99.90
26336;DHT22;14047;50.936;4.654;2023-02-20T15:46:38;9.60;99.90
26336;DHT22;14047;50.936;4.654;2023-02-20T15:49:04;9.60;99.90
26336;DHT22;14047;50.936;4.654;2023-02-20T15:51:33;9.60;99.90
26336;DHT22;14047;50.936;4.654;2023-02-20T15:54:00;9.60;99.90
26336;DHT22;14047;50.936;4.654;2023-02-20T15:56:30;9.70;99.90
26336;DHT22;14047;50.936;4.654;2023-02-20T15:59:01;9.60;99.90
26336;DHT22;14047;50.936;4.654;2023-02-20T16:01:29;9.50;99.90
26336;DHT22;14047;50.936;4.654;2023-02-20T16:03:55;9.50;99.90
26336;DHT22;14047;50.936;4.654;2023-02-20T16:06:21;9.60;99.90
26336;DHT22;14047;50.936;4.654;2023-02-20T16:08:48;9.60;99.90
26336;DHT22;14047;50.936;4.654;2023-02-20T16:11:16;9.60;99.90
26336;DHT22;14047;50.936;4.654;2023-02-20T16:13:44;9.60;99.90
26336;DHT22;14047;50.936;4.654;2023-02-20T16:16:18;9.60;99.90
26336;DHT22;14047;50.936;4.654;2023-02-20T16:18:45;9.60;99.90
26336;DHT22;14047;50.936;4.654;2023-02-20T16:21:13;9.60;99.90
26336;DHT22;14047;50.936;4.654;2023-02-20T16:23:40;9.60;99.90
26336;DHT22;14047;50.936;4.654;2023-02-20T16:26:08;9.50;99.90
26336;DHT22;14047;50.936;4.654;2023-02-20T16:28:34;9.50;99.90
26336;DHT22;14047;50.936;4.654;2023-02-20T16:31:00;9.60;99.90
26336;DHT22;14047;50.936;4.654;2023-02-20T16:33:26;9.60;99.90
26336;DHT22;14047;50.936;4.654;2023-02-20T16:35:52;9.70;99.90
26336;DHT22;14047;50.936;4.654;2023-02-20T16:38:18;9.60;99.90
26336;DHT22;14047;50.936;4.654;2023-02-20T16:40:45;9.50;99.90
26336;DHT22;14047;50.936;4.654;2023-02-20T16:43:14;9.50;99.90
26336;DHT22;14047;50.936;4.654;2023-02-20T16:45:40;9.50;99.90
26336;DHT22;14047;50.936;4.654;2023-02-20T16:48:18;9.40;99.90
26336;DHT22;14047;50.936;4.654;2023-02-20T16:50:47;9.40;99.90
26336;DHT22;14047;50.936;4.654;2023-02-20T16:53:15;9.40;99.90
26336;DHT22;14047;50.936;4.654;2023-02-20T16:55:41;9.40;99.90
26336;DHT22;14047;50.936;4.654;2023-02-20T16:58:07;9.40;99.90
26336;DHT22;14047;50.936;4.654;2023-02-20T17:00:36;9.40;99.90
26336;DHT22;14047;50.936;4.654;2023-02-20T17:03:05;9.40;99.90
26336;DHT22;14047;50.936;4.654;2023-02-20T17:05:33;9.50;99.90
26336;DHT22;14047;50.936;4.654;2023-02-20T17:08:01;9.40;99.90
26336;DHT22;14047;50.936;4.654;2023-02-20T17:10:28;9.40;99.90
26336;DHT22;14047;50.936;4.654;2023-02-20T17:12:55;9.40;99.90
26336;DHT22;14047;50.936;4.654;2023-02-20T17:15:23;9.40;99.90
26336;DHT22;14047;50.936;4.654;2023-02-20T17:17:51;9.40;99.90
26336;DHT22;14047;50.936;4.654;2023-02-20T17:20:20;9.30;99.90
26336;DHT22;14047;50.936;4.654;2023-02-20T17:22:50;9.30;99.90
26336;DHT22;14047;50.936;4.654;2023-02-20T17:25:18;9.30;99.90
26336;DHT22;14047;50.936;4.654;2023-02-20T17:27:45;9.30;99.90
26336;DHT22;14047;50.936;4.654;2023-02-20T17:30:12;9.30;99.90
26336;DHT22;14047;50.936;4.654;2023-02-20T17:32:39;9.30;99.90
26336;DHT22;14047;50.936;4.654;2023-02-20T17:35:06;9.30;99.90
26336;DHT22;14047;50.936;4.654;2023-02-20T17:37:32;9.30;99.90
26336;DHT22;14047;50.936;4.654;2023-02-20T17:39:59;9.30;99.90
26336;DHT22;14047;50.936;4.654;2023-02-20T17:42:26;9.20;99.90
26336;DHT22;14047;50.936;4.654;2023-02-20T17:44:52;9.30;99.90
26336;DHT22;14047;50.936;4.654;2023-02-20T17:47:20;9.30;99.90
26336;DHT22;14047;50.936;4.654;2023-02-20T17:49:50;9.20;99.90
26336;DHT22;14047;50.936;4.654;2023-02-20T17:52:16;9.30;99.90
26336;DHT22;14047;50.936;4.654;2023-02-20T17:54:47;9.30;99.90
26336;DHT22;14047;50.936;4.654;2023-02-20T17:57:15;9.30;99.90
26336;DHT22;14047;50.936;4.654;2023-02-20T17:59:44;9.20;99.90
26336;DHT22;14047;50.936;4.654;2023-02-20T18:02:11;9.30;99.90
26336;DHT22;14047;50.936;4.654;2023-02-20T18:04:38;9.20;99.90
26336;DHT22;14047;50.936;4.654;2023-02-20T18:07:05;9.20;99.90
26336;DHT22;14047;50.936;4.654;2023-02-20T18:09:31;9.20;99.90
26336;DHT22;14047;50.936;4.654;2023-02-20T18:11:59;9.10;99.90